Time;durP1;ratioP1;P1;durP2;ratioP2;P2;SDS_P1;SDS_P2;PMS_P1;PMS_P2;Temp;Humidity;BMP_temperature;BMP_pressure;BME280_temperature;BME280_humidity;BME280_pressure;Samples;Min_cycle;Max_cycle;Signal;HPM_P1;HPM_P2
2023/02/12 00:01:08;;;;;;;5.43;4.00;;;12.60;56.30;;;;;;4991954;28;20037;-85
2023/02/12 00:03:35;;;;;;;6.50;4.00;;;12.60;56.30;;;;;;5008307;28;20064;-85
2023/02/12 00:06:01;;;;;;;4.95;3.72;;;12.60;56.30;;;;;;5006455;28;20449;-85
2023/02/12 00:08:28;;;;;;;5.15;3.92;;;12.60;56.40;;;;;;5027661;28;20037;-85
2023/02/12 00:10:54;;;;;;;4.65;3.72;;;12.60;56.60;;;;;;4993108;28;20192;-84
2023/02/12 00:13:20;;;;;;;5.65;3.50;;;12.60;56.60;;;;;;5035733;28;20042;-84
2023/02/12 00:15:46;;;;;;;5.43;3.67;;;12.60;56.80;;;;;;4993603;28;20041;-84
2023/02/12 00:18:11;;;;;;;5.38;3.28;;;12.60;56.70;;;;;;5027490;28;20083;-84
2023/02/12 00:20:38;;;;;;;5.97;3.40;;;12.60;56.70;;;;;;5026895;28;20029;-84
2023/02/12 00:23:04;;;;;;;4.20;2.83;;;12.60;56.90;;;;;;5009105;28;20589;-84
2023/02/12 00:25:31;;;;;;;3.15;2.55;;;12.70;56.90;;;;;;5027551;28;20090;-84
2023/02/12 00:27:57;;;;;;;3.20;2.67;;;12.70;57.00;;;;;;5009544;28;20045;-84
2023/02/12 00:30:25;;;;;;;3.58;2.53;;;12.70;56.90;;;;;;5027777;28;20037;-84
2023/02/12 00:32:54;;;;;;;2.50;2.30;;;12.60;56.70;;;;;;4992743;28;20036;-85
2023/02/12 00:35:20;;;;;;;4.00;2.30;;;12.70;56.60;;;;;;5008079;28;20049;-84
2023/02/12 00:37:48;;;;;;;3.65;2.47;;;12.70;56.60;;;;;;4992812;28;20123;-84
2023/02/12 00:40:14;;;;;;;2.58;2.25;;;12.70;57.20;;;;;;4993721;28;20064;-84
2023/02/12 00:42:40;;;;;;;2.65;2.10;;;12.70;56.70;;;;;;5024689;28;20063;-86
2023/02/12 00:45:07;;;;;;;2.88;1.92;;;12.70;56.60;;;;;;5009516;28;20048;-87
2023/02/12 00:47:33;;;;;;;2.20;2.00;;;12.70;56.60;;;;;;5016429;28;20048;-86
2023/02/12 00:49:59;;;;;;;2.58;2.05;;;12.80;56.70;;;;;;4992048;28;20475;-85
2023/02/12 00:52:26;;;;;;;1.67;1.40;;;12.70;56.60;;;;;;5007169;28;20504;-85
2023/02/12 00:54:51;;;;;;;2.58;2.10;;;12.70;56.50;;;;;;4991871;28;20087;-85
2023/02/12 00:57:17;;;;;;;4.13;1.77;;;12.70;56.50;;;;;;4976660;28;20026;-84
2023/02/12 00:59:43;;;;;;;2.67;1.95;;;12.70;56.40;;;;;;5009010;28;20057;-87
2023/02/12 01:02:09;;;;;;;2.15;1.67;;;12.70;56.40;;;;;;5008552;28;20044;-87
2023/02/12 01:04:35;;;;;;;2.05;1.80;;;12.70;56.40;;;;;;4992067;28;20044;-83
2023/02/12 01:07:01;;;;;;;2.03;1.70;;;12.70;56.40;;;;;;5007908;28;20501;-84
2023/02/12 01:09:27;;;;;;;5.95;2.25;;;12.70;56.30;;;;;;5008335;28;20040;-84
2023/02/12 01:11:53;;;;;;;2.67;2.20;;;12.70;56.20;;;;;;5018988;28;20030;-84
2023/02/12 01:14:21;;;;;;;2.50;2.05;;;12.80;56.20;;;;;;5025304;28;20337;-85
2023/02/12 01:16:47;;;;;;;2.38;2.17;;;12.80;56.10;;;;;;4991771;28;20033;-84
2023/02/12 01:19:13;;;;;;;3.72;2.58;;;12.80;56.00;;;;;;4992309;28;20042;-85
2023/02/12 01:21:39;;;;;;;2.75;2.20;;;12.70;56.50;;;;;;4991518;28;20029;-84
2023/02/12 01:24:06;;;;;;;4.32;2.60;;;12.80;55.90;;;;;;5026185;28;20120;-85
2023/02/12 01:26:32;;;;;;;3.35;2.30;;;12.80;55.70;;;;;;5025968;28;20044;-84
2023/02/12 01:29:00;;;;;;;3.53;2.65;;;12.80;55.70;;;;;;5003431;28;20046;-84
2023/02/12 01:31:30;;;;;;;2.47;2.28;;;12.80;55.70;;;;;;5013901;28;20128;-86
2023/02/12 01:33:58;;;;;;;2.60;2.10;;;12.80;55.60;;;;;;5007608;28;20076;-85
2023/02/12 01:36:27;;;;;;;3.08;2.40;;;12.80;55.90;;;;;;5026334;28;20512;-85
2023/02/12 01:38:53;;;;;;;4.03;2.78;;;12.80;55.80;;;;;;5007758;28;20128;-85
2023/02/12 01:41:21;;;;;;;3.85;2.75;;;12.80;55.70;;;;;;4990811;28;20030;-85
2023/02/12 01:44:11;;;;;;;3.13;2.75;;;12.80;55.60;;;;;;5007150;28;20077;-85
2023/02/12 01:46:37;;;;;;;3.72;2.80;;;12.80;55.50;;;;;;4988723;28;20034;-84
2023/02/12 01:49:07;;;;;;;4.05;2.90;;;12.80;55.40;;;;;;5023735;28;20044;-84
2023/02/12 01:51:34;;;;;;;5.15;2.95;;;12.80;55.20;;;;;;5025697;28;20039;-85
2023/02/12 01:54:04;;;;;;;4.57;3.03;;;12.80;55.10;;;;;;4992024;28;20492;-84
2023/02/12 01:56:31;;;;;;;3.53;2.90;;;12.80;55.00;;;;;;4990716;28;20450;-85
2023/02/12 01:58:57;;;;;;;6.03;3.05;;;12.70;55.00;;;;;;5006952;28;20037;-85
2023/02/12 02:01:27;;;;;;;3.55;2.88;;;12.80;55.00;;;;;;4991304;28;20420;-87
2023/02/12 02:04:00;;;;;;;5.03;2.95;;;12.80;54.90;;;;;;5023225;28;20049;-87
2023/02/12 02:06:31;;;;;;;3.40;2.85;;;12.70;54.70;;;;;;5008217;28;20068;-85
2023/02/12 02:09:00;;;;;;;3.88;2.80;;;12.80;54.70;;;;;;5010032;28;20033;-84
2023/02/12 02:17:16;;;;;;;3.63;2.90;;;12.70;54.50;;;;;;5007322;28;20041;-82
2023/02/12 02:20:16;;;;;;;4.13;2.88;;;12.70;54.50;;;;;;5024786;28;20061;-84
2023/02/12 02:22:48;;;;;;;3.95;2.75;;;12.70;54.50;;;;;;5002603;28;20061;-83
2023/02/12 02:25:27;;;;;;;3.30;2.50;;;12.70;54.50;;;;;;5003131;28;20500;-83
2023/02/12 02:28:17;;;;;;;3.72;2.70;;;12.70;54.60;;;;;;5003509;28;20064;-83
2023/02/12 02:30:53;;;;;;;3.47;2.30;;;12.70;54.60;;;;;;4987246;28;20034;-83
2023/02/12 02:33:54;;;;;;;;;;;12.70;54.50;;;;;;5004412;28;20018;-83
2023/02/12 02:36:29;;;;;;;3.63;2.60;;;12.70;54.50;;;;;;4982372;28;19921;-83
2023/02/12 02:39:06;;;;;;;3.47;2.63;;;12.70;54.40;;;;;;4999729;28;20116;-83
2023/02/12 02:41:43;;;;;;;2.40;2.20;;;12.70;54.40;;;;;;5025066;28;20042;-84
2023/02/12 02:44:16;;;;;;;2.63;2.15;;;12.70;54.30;;;;;;5023832;28;20033;-83
2023/02/12 02:46:48;;;;;;;2.67;2.05;;;12.70;54.20;;;;;;5006902;28;20518;-83
2023/02/12 02:49:26;;;;;;;2.80;2.00;;;12.70;54.10;;;;;;5006495;28;20034;-83
2023/02/12 02:52:02;;;;;;;2.33;1.55;;;12.70;54.00;;;;;;5024199;28;20110;-83
2023/02/12 02:54:57;;;;;;;2.20;2.00;;;12.70;54.00;;;;;;5024304;28;20059;-83
2023/02/12 02:57:36;;;;;;;3.00;1.95;;;12.60;53.90;;;;;;4994988;28;20370;-83
2023/02/12 03:00:16;;;;;;;4.05;1.80;;;12.60;53.70;;;;;;5011279;28;21062;-83
2023/02/12 03:02:49;;;;;;;2.55;1.77;;;12.60;53.70;;;;;;4993545;28;20393;-82
2023/02/12 03:05:26;;;;;;;1.75;1.65;;;12.60;53.60;;;;;;5010659;28;20029;-83
2023/02/12 03:07:59;;;;;;;2.00;1.23;;;12.60;53.60;;;;;;5035764;28;20045;-83
2023/02/12 03:10:37;;;;;;;4.32;1.50;;;12.60;53.80;;;;;;5028255;28;20038;-83
2023/02/12 03:13:10;;;;;;;2.83;1.77;;;12.60;54.00;;;;;;5027962;28;20467;-84
2023/02/12 03:16:08;;;;;;;1.60;1.30;;;12.60;53.90;;;;;;5028147;28;20037;-83
2023/02/12 03:19:05;;;;;;;2.30;1.52;;;12.60;53.90;;;;;;4993604;28;20407;-85
2023/02/12 03:22:07;;;;;;;2.25;1.40;;;12.60;53.80;;;;;;5009801;28;20120;-85
2023/02/12 03:24:49;;;;;;;2.22;1.40;;;12.60;53.70;;;;;;4927948;29;20043;-84
2023/02/12 03:27:28;;;;;;;2.20;1.20;;;12.60;53.70;;;;;;4928878;29;20177;-83
2023/02/12 03:29:55;;;;;;;1.58;1.30;;;12.60;53.60;;;;;;4912150;29;20066;-83
2023/02/12 03:32:47;;;;;;;2.17;1.60;;;12.60;53.70;;;;;;4911595;29;20039;-83
2023/02/12 03:35:16;;;;;;;1.90;1.50;;;12.60;53.60;;;;;;4927763;29;20040;-83
2023/02/12 03:37:48;;;;;;;1.45;1.30;;;12.60;53.70;;;;;;4924913;29;20032;-83
2023/02/12 03:40:28;;;;;;;2.92;1.85;;;12.60;53.70;;;;;;4900099;29;20035;-84
2023/02/12 03:43:02;;;;;;;3.28;2.15;;;12.60;53.80;;;;;;4912458;29;20042;-84
2023/02/12 03:45:44;;;;;;;3.22;1.85;;;12.60;53.90;;;;;;4928927;29;20544;-84
2023/02/12 03:48:53;;;;;;;2.67;1.92;;;12.60;54.00;;;;;;4928977;29;20194;-84
2023/02/12 03:51:38;;;;;;;3.42;2.10;;;12.50;54.00;;;;;;4860935;29;20081;-84
2023/02/12 03:54:06;;;;;;;3.08;1.67;;;12.60;54.10;;;;;;4928662;29;20047;-84
2023/02/12 03:56:54;;;;;;;2.72;1.77;;;12.50;54.10;;;;;;4909420;29;20565;-83
2023/02/12 03:59:24;;;;;;;4.30;2.05;;;12.60;54.20;;;;;;4956779;28;20057;-83
2023/02/12 04:01:53;;;;;;;2.80;1.50;;;12.50;53.70;;;;;;5026959;28;20072;-83
2023/02/12 04:04:19;;;;;;;3.88;2.28;;;12.50;53.60;;;;;;5009501;28;20033;-84
2023/02/12 04:06:47;;;;;;;3.03;1.70;;;12.60;53.60;;;;;;4993855;28;20041;-84
2023/02/12 04:09:14;;;;;;;3.17;1.88;;;12.50;53.40;;;;;;5009244;28;20409;-85
2023/02/12 04:11:56;;;;;;;3.92;2.03;;;12.50;53.30;;;;;;5027586;28;20072;-84
2023/02/12 04:14:43;;;;;;;3.45;2.08;;;12.50;53.20;;;;;;5009370;28;20036;-85
2023/02/12 04:17:47;;;;;;;2.78;1.70;;;12.50;53.10;;;;;;4976752;28;20034;-84
2023/02/12 04:20:12;;;;;;;2.13;1.52;;;12.50;53.20;;;;;;5027238;28;20112;-86
2023/02/12 04:23:14;;;;;;;4.43;1.52;;;12.50;53.10;;;;;;5009772;28;20623;-85
2023/02/12 04:26:28;;;;;;;2.95;1.63;;;12.50;53.10;;;;;;5009168;28;20803;-84
2023/02/12 04:29:01;;;;;;;4.05;1.98;;;12.50;53.10;;;;;;4992334;28;20079;-85
2023/02/12 04:31:54;;;;;;;3.63;2.05;;;12.50;53.00;;;;;;5005163;28;20124;-85
2023/02/12 04:34:43;;;;;;;2.80;1.70;;;12.50;52.90;;;;;;5009249;28;20034;-85
2023/02/12 04:37:17;;;;;;;2.45;1.30;;;12.50;52.80;;;;;;5012556;28;20425;-84
2023/02/12 04:39:44;;;;;;;1.60;1.17;;;12.50;52.70;;;;;;5012010;28;20456;-85
2023/02/12 04:42:11;;;;;;;3.13;1.48;;;12.50;52.70;;;;;;5035135;28;20029;-84
2023/02/12 04:44:40;;;;;;;2.20;1.38;;;12.50;52.60;;;;;;5027851;28;20280;-83
2023/02/12 04:47:06;;;;;;;3.47;1.35;;;12.50;52.70;;;;;;5008855;28;20071;-84
2023/02/12 04:49:32;;;;;;;3.05;1.60;;;12.50;52.60;;;;;;5008416;28;20033;-84
2023/02/12 04:51:58;;;;;;;2.35;1.45;;;12.50;52.60;;;;;;5026029;28;20091;-84
2023/02/12 04:54:24;;;;;;;3.45;1.50;;;12.40;52.70;;;;;;5009713;28;20034;-84
2023/02/12 04:56:50;;;;;;;2.40;1.38;;;12.50;52.70;;;;;;5003393;28;20040;-84
2023/02/12 04:59:16;;;;;;;3.05;1.33;;;12.50;52.60;;;;;;5008490;28;20756;-83
2023/02/12 05:01:44;;;;;;;2.45;1.10;;;12.40;52.70;;;;;;5024520;28;20060;-85
2023/02/12 05:04:13;;;;;;;2.22;1.40;;;12.40;52.70;;;;;;5026693;28;20064;-83
2023/02/12 05:06:39;;;;;;;1.95;1.30;;;12.40;52.60;;;;;;5033652;28;20033;-83
2023/02/12 05:09:07;;;;;;;2.97;1.73;;;12.40;52.50;;;;;;5026816;28;20033;-84
2023/02/12 05:11:33;;;;;;;2.38;1.52;;;12.40;52.40;;;;;;5026856;28;20592;-84
2023/02/12 05:13:59;;;;;;;2.30;1.08;;;12.40;52.30;;;;;;5026222;28;20472;-85
2023/02/12 05:16:25;;;;;;;2.97;1.20;;;12.40;52.20;;;;;;5026691;28;20424;-85
2023/02/12 05:18:51;;;;;;;2.20;1.15;;;12.40;52.30;;;;;;5027340;28;20044;-86
2023/02/12 05:21:17;;;;;;;3.17;1.23;;;12.40;52.30;;;;;;5009325;28;20069;-84
2023/02/12 05:23:43;;;;;;;1.88;1.20;;;12.40;52.30;;;;;;5017606;28;20128;-87
2023/02/12 05:26:15;;;;;;;3.95;1.48;;;12.40;52.30;;;;;;5025518;28;20030;-86
2023/02/12 05:28:41;;;;;;;2.50;1.20;;;12.40;52.20;;;;;;5025969;28;20451;-86
2023/02/12 05:31:10;;;;;;;1.85;1.10;;;12.40;52.10;;;;;;5008199;28;20041;-86
2023/02/12 05:33:36;;;;;;;4.00;1.20;;;12.40;52.20;;;;;;5008296;28;20072;-84
2023/02/12 05:36:07;;;;;;;2.17;1.30;;;12.40;52.20;;;;;;5026553;28;20460;-86
2023/02/12 05:38:33;;;;;;;3.85;1.38;;;12.40;52.00;;;;;;5024879;28;20191;-86
2023/02/12 05:41:04;;;;;;;2.50;1.08;;;12.40;52.00;;;;;;5025732;28;20041;-85
2023/02/12 05:43:31;;;;;;;1.95;1.15;;;12.40;52.00;;;;;;5007782;28;20056;-84
2023/02/12 05:46:04;;;;;;;3.08;1.27;;;12.40;51.80;;;;;;5008631;28;20049;-84
2023/02/12 05:48:31;;;;;;;2.60;1.13;;;12.30;51.60;;;;;;5024070;28;20043;-82
2023/02/12 05:51:20;;;;;;;2.25;1.20;;;12.30;51.60;;;;;;5007748;28;20052;-82
2023/02/12 05:53:46;;;;;;;3.92;1.30;;;12.40;51.60;;;;;;5024464;28;20064;-84
2023/02/12 05:56:18;;;;;;;2.78;1.23;;;12.40;51.40;;;;;;5023102;28;20061;-85
2023/02/12 05:58:47;;;;;;;3.20;1.20;;;12.30;51.40;;;;;;5007492;28;20137;-85
2023/02/12 06:01:20;;;;;;;2.47;1.15;;;12.30;51.30;;;;;;5022159;28;20034;-82
2023/02/12 06:03:46;;;;;;;1.52;1.13;;;12.30;51.20;;;;;;5022871;28;20040;-80
2023/02/12 06:06:12;;;;;;;2.08;1.13;;;12.30;51.40;;;;;;4991920;28;20025;-82
2023/02/12 06:08:39;;;;;;;3.17;1.35;;;12.30;51.30;;;;;;4974692;28;20064;-84
2023/02/12 06:11:07;;;;;;;2.80;1.25;;;12.40;51.50;;;;;;5021835;28;20038;-82
2023/02/12 06:13:34;;;;;;;2.92;1.63;;;12.30;51.30;;;;;;5022190;28;20041;-82
2023/02/12 06:16:00;;;;;;;2.72;1.25;;;12.30;51.20;;;;;;5023731;28;20045;-80
2023/02/12 06:18:27;;;;;;;2.05;1.10;;;12.30;51.30;;;;;;5004217;28;20496;-84
2023/02/12 06:20:53;;;;;;;3.22;1.05;;;12.30;51.30;;;;;;4966945;28;20872;-82
2023/02/12 06:23:23;;;;;;;2.55;1.00;;;12.30;51.20;;;;;;5016446;28;20688;-82
2023/02/12 06:25:54;;;;;;;2.15;0.93;;;12.30;51.10;;;;;;5023353;28;20041;-81
2023/02/12 06:28:20;;;;;;;1.92;1.10;;;12.30;51.10;;;;;;5021857;28;20423;-82
2023/02/12 06:30:46;;;;;;;2.15;1.23;;;12.30;51.20;;;;;;5021646;28;20033;-85
2023/02/12 06:33:12;;;;;;;2.28;0.65;;;12.30;51.20;;;;;;5004260;28;20025;-83
2023/02/12 06:35:38;;;;;;;2.28;0.70;;;12.30;51.20;;;;;;5001294;28;20515;-84
2023/02/12 06:38:04;;;;;;;2.58;0.70;;;12.30;51.30;;;;;;5004762;28;20497;-83
2023/02/12 06:40:30;;;;;;;1.65;0.75;;;12.30;51.30;;;;;;5005141;28;20029;-87
2023/02/12 06:42:56;;;;;;;1.25;0.68;;;12.30;51.30;;;;;;5022161;28;20037;-81
2023/02/12 06:45:22;;;;;;;1.67;0.60;;;12.30;51.30;;;;;;5005431;28;20548;-81
2023/02/12 06:47:48;;;;;;;1.88;0.70;;;12.30;51.30;;;;;;5023608;28;20030;-80
2023/02/12 06:50:14;;;;;;;2.22;0.60;;;12.30;51.40;;;;;;5023682;28;20066;-78
2023/02/12 06:52:40;;;;;;;2.45;0.60;;;12.30;51.30;;;;;;5022434;28;20068;-81
2023/02/12 06:55:06;;;;;;;4.30;0.57;;;12.30;51.20;;;;;;5024089;28;20061;-80
2023/02/12 06:57:32;;;;;;;2.72;0.45;;;12.30;50.90;;;;;;5006386;28;20037;-80
2023/02/12 06:59:58;;;;;;;1.77;0.82;;;12.30;50.60;;;;;;5025700;28;20052;-83
2023/02/12 07:02:24;;;;;;;1.60;0.77;;;12.30;50.50;;;;;;5022588;28;20033;-81
2023/02/12 07:04:50;;;;;;;1.85;0.70;;;12.20;50.30;;;;;;5023902;28;20120;-80
2023/02/12 07:07:16;;;;;;;1.30;0.50;;;12.20;50.30;;;;;;5024457;28;20041;-83
2023/02/12 07:09:42;;;;;;;2.28;0.52;;;12.20;50.50;;;;;;5006704;28;20079;-80
2023/02/12 07:12:08;;;;;;;1.17;0.70;;;12.20;50.60;;;;;;5025098;28;20116;-80
2023/02/12 07:14:34;;;;;;;3.20;0.70;;;12.20;50.60;;;;;;5005909;28;20073;-82
2023/02/12 07:17:04;;;;;;;1.75;0.60;;;12.20;50.50;;;;;;5025203;28;20114;-81
2023/02/12 07:19:30;;;;;;;3.47;0.75;;;12.20;50.50;;;;;;5024091;28;20045;-81
2023/02/12 07:21:56;;;;;;;2.35;0.70;;;12.20;50.50;;;;;;5024185;28;20045;-81
2023/02/12 07:24:22;;;;;;;2.08;1.00;;;12.20;50.50;;;;;;5026265;28;20029;-81
2023/02/12 07:26:48;;;;;;;1.80;0.55;;;12.10;50.40;;;;;;4991264;28;20043;-84
2023/02/12 07:29:14;;;;;;;1.00;0.55;;;12.10;50.40;;;;;;5023494;28;20060;-82
2023/02/12 07:31:40;;;;;;;0.70;0.57;;;12.10;50.40;;;;;;5025991;28;20056;-81
2023/02/12 07:34:06;;;;;;;6.18;1.00;;;12.10;50.40;;;;;;5020520;28;20539;-91
2023/02/12 07:36:32;;;;;;;1.30;0.70;;;12.10;50.40;;;;;;5022919;28;20030;-82
2023/02/12 07:39:00;;;;;;;2.20;0.77;;;12.00;50.40;;;;;;5007193;28;20403;-87
2023/02/12 07:41:29;;;;;;;1.85;0.40;;;12.10;50.40;;;;;;5014336;28;20037;-85
2023/02/12 07:44:06;;;;;;;1.92;0.50;;;12.10;50.30;;;;;;4972078;28;20034;-82
2023/02/12 07:46:38;;;;;;;2.25;0.57;;;12.10;50.30;;;;;;5006316;28;20076;-82
2023/02/12 07:49:06;;;;;;;1.33;0.60;;;12.00;50.10;;;;;;4989937;28;20025;-83
2023/02/12 07:51:33;;;;;;;0.93;0.50;;;12.00;50.10;;;;;;5010870;28;20033;-82
2023/02/12 07:54:00;;;;;;;1.95;0.60;;;12.00;50.70;;;;;;5017449;28;20026;-84
2023/02/12 07:56:31;;;;;;;1.05;0.45;;;12.00;50.00;;;;;;5028921;28;20037;-94
2023/02/12 07:58:59;;;;;;;1.45;0.70;;;12.00;48.30;;;;;;5030278;28;20041;-86
2023/02/12 08:01:28;;;;;;;3.58;0.75;;;11.90;47.10;;;;;;5014603;28;20037;-88
2023/02/12 08:03:59;;;;;;;2.38;0.68;;;11.80;46.30;;;;;;5008583;28;20044;-85
2023/02/12 08:06:28;;;;;;;1.33;0.40;;;11.80;45.80;;;;;;5005439;28;20589;-88
2023/02/12 08:08:55;;;;;;;2.10;0.60;;;11.70;45.50;;;;;;4997779;28;20048;-84
2023/02/12 08:11:22;;;;;;;1.55;0.50;;;11.60;45.50;;;;;;5032056;28;20451;-88
2023/02/12 08:13:50;;;;;;;2.92;0.98;;;11.50;45.50;;;;;;5015353;28;20060;-84
2023/02/12 08:16:19;;;;;;;2.00;0.77;;;11.40;45.00;;;;;;5028895;28;20034;-82
2023/02/12 08:18:46;;;;;;;2.40;0.55;;;11.30;44.90;;;;;;5009641;28;20025;-88
2023/02/12 08:21:14;;;;;;;1.58;0.80;;;11.20;44.90;;;;;;5041301;28;20042;-90
2023/02/12 08:23:41;;;;;;;1.20;0.73;;;11.10;44.40;;;;;;5021081;28;20033;-90
2023/02/12 08:26:12;;;;;;;2.33;0.55;;;11.10;44.00;;;;;;5025769;28;20029;-82
2023/02/12 08:28:42;;;;;;;1.75;0.77;;;11.00;43.50;;;;;;5024205;28;20569;-89
2023/02/12 08:31:12;;;;;;;1.40;0.50;;;10.90;43.10;;;;;;5013745;28;20188;-87
2023/02/12 08:33:38;;;;;;;2.10;0.60;;;10.80;43.60;;;;;;5027860;28;20033;-89
2023/02/12 08:36:08;;;;;;;1.25;0.82;;;10.70;44.60;;;;;;5009262;28;20131;-85
2023/02/12 08:38:35;;;;;;;1.38;0.55;;;10.70;43.30;;;;;;4972603;28;20046;-79
2023/02/12 08:41:09;;;;;;;2.47;0.50;;;10.60;42.70;;;;;;5010119;28;20044;-81
2023/02/12 08:43:36;;;;;;;0.93;0.40;;;10.50;42.60;;;;;;5010497;28;20034;-80
2023/02/12 08:46:04;;;;;;;3.10;0.63;;;10.40;43.20;;;;;;4994065;28;20468;-82
2023/02/12 08:48:31;;;;;;;2.35;0.50;;;10.30;43.70;;;;;;4993963;28;20034;-84
2023/02/12 08:51:07;;;;;;;2.03;0.80;;;10.30;43.80;;;;;;4987383;28;20045;-79
2023/02/12 08:53:34;;;;;;;4.15;1.00;;;10.20;43.80;;;;;;5009927;28;20093;-81
2023/02/12 08:56:00;;;;;;;2.13;0.68;;;10.20;46.20;;;;;;4992824;28;20490;-82
2023/02/12 08:58:26;;;;;;;3.10;1.00;;;10.20;47.70;;;;;;5011249;28;20034;-82
2023/02/12 09:00:52;;;;;;;3.25;0.88;;;10.30;48.30;;;;;;5011004;28;20034;-84
2023/02/12 09:03:18;;;;;;;3.35;0.70;;;10.20;48.80;;;;;;4997835;28;20033;-83
2023/02/12 09:05:44;;;;;;;4.85;0.70;;;10.30;49.20;;;;;;4993926;28;20042;-82
2023/02/12 09:08:10;;;;;;;1.63;0.60;;;10.40;49.30;;;;;;5012769;28;20030;-81
2023/02/12 09:10:41;;;;;;;3.42;0.50;;;10.40;49.70;;;;;;4962390;28;20087;-82
2023/02/12 09:13:07;;;;;;;3.17;0.90;;;10.40;49.80;;;;;;4984686;28;20038;-85
2023/02/12 09:15:51;;;;;;;1.85;0.57;;;10.50;50.00;;;;;;5014051;28;20106;-91
2023/02/12 09:18:17;;;;;;;2.05;0.57;;;10.60;50.20;;;;;;4999320;28;20418;-89
2023/02/12 09:20:44;;;;;;;1.77;0.85;;;10.60;50.20;;;;;;4968745;28;20513;-93
2023/02/12 09:23:12;;;;;;;1.55;0.60;;;10.60;50.20;;;;;;5011887;28;20026;-90
2023/02/12 09:25:40;;;;;;;1.70;0.90;;;10.70;50.20;;;;;;4990092;28;20041;-88
2023/02/12 09:28:06;;;;;;;1.88;0.73;;;10.80;50.40;;;;;;5012465;28;20731;-90
2023/02/12 09:30:32;;;;;;;1.58;0.80;;;10.80;50.50;;;;;;5012273;28;20030;-93
2023/02/12 09:32:58;;;;;;;5.35;1.00;;;10.90;51.00;;;;;;4996956;28;20416;-92
2023/02/12 09:35:25;;;;;;;2.65;0.68;;;10.90;51.70;;;;;;4992800;28;20126;-92
2023/02/12 09:37:52;;;;;;;4.75;1.00;;;11.00;51.90;;;;;;4999427;28;20053;-92
2023/02/12 09:40:21;;;;;;;2.00;0.93;;;11.00;52.00;;;;;;4960615;28;20042;-90
2023/02/12 09:43:01;;;;;;;2.22;0.80;;;11.10;51.80;;;;;;4983422;28;20025;-90
2023/02/12 09:45:32;;;;;;;3.55;0.98;;;11.10;51.30;;;;;;4979660;28;20404;-91
2023/02/12 09:48:21;;;;;;;2.15;0.98;;;11.20;51.20;;;;;;4978840;28;20030;-91
2023/02/12 09:50:54;;;;;;;5.30;0.70;;;11.20;50.90;;;;;;5006839;28;20149;-90
2023/02/12 09:53:27;;;;;;;2.20;0.82;;;11.20;50.60;;;;;;4960341;28;20053;-91
2023/02/12 09:55:53;;;;;;;2.00;0.65;;;11.30;50.30;;;;;;5010775;28;20030;-86
2023/02/12 09:58:23;;;;;;;3.05;0.65;;;11.40;50.20;;;;;;4989197;28;20531;-91
2023/02/12 10:00:49;;;;;;;1.20;0.55;;;11.40;50.00;;;;;;5008610;28;20049;-89
2023/02/12 10:03:16;;;;;;;1.77;0.60;;;11.40;49.70;;;;;;5012243;28;20497;-89
2023/02/12 10:05:57;;;;;;;1.58;0.50;;;11.50;49.50;;;;;;5001989;28;20386;-92
2023/02/12 10:08:44;;;;;;;2.22;0.60;;;11.50;49.20;;;;;;5003946;28;20041;-92
2023/02/12 10:11:32;;;;;;;2.65;0.57;;;11.60;49.00;;;;;;4993602;28;20420;-91
2023/02/12 10:14:36;;;;;;;1.52;0.65;;;11.60;49.00;;;;;;4991539;28;20049;-92
2023/02/12 10:17:23;;;;;;;1.40;0.40;;;11.60;48.90;;;;;;4977865;28;20501;-91
2023/02/12 10:20:19;;;;;;;1.77;0.50;;;11.70;48.90;;;;;;4994001;28;20086;-91
2023/02/12 10:23:07;;;;;;;1.85;0.50;;;11.70;48.60;;;;;;4977555;28;20540;-92
2023/02/12 10:25:42;;;;;;;1.58;0.40;;;11.70;48.20;;;;;;4981255;28;20085;-92
2023/02/12 10:28:12;;;;;;;3.17;0.52;;;11.80;48.00;;;;;;4970823;28;20033;-92
2023/02/12 10:30:50;;;;;;;1.15;0.50;;;11.80;47.70;;;;;;4994121;28;20091;-90
2023/02/12 10:33:39;;;;;;;0.40;0.30;;;11.80;47.70;;;;;;4993489;28;20026;-90
2023/02/12 10:36:23;;;;;;;2.38;0.47;;;11.80;47.50;;;;;;5002897;28;20046;-91
2023/02/12 10:38:56;;;;;;;2.72;0.50;;;11.90;47.40;;;;;;4995046;28;20062;-89
2023/02/12 10:41:24;;;;;;;1.25;0.40;;;11.90;47.30;;;;;;4994244;28;20044;-90
2023/02/12 10:43:50;;;;;;;1.10;0.50;;;11.90;47.10;;;;;;4977667;28;20416;-92
2023/02/12 10:46:16;;;;;;;0.95;0.40;;;11.90;47.10;;;;;;4993017;28;20096;-90
2023/02/12 10:48:48;;;;;;;1.65;0.35;;;11.90;47.00;;;;;;4993626;28;20025;-92
2023/02/12 10:51:39;;;;;;;2.22;0.60;;;12.00;46.70;;;;;;4964120;28;20085;-87
2023/02/12 10:54:42;;;;;;;1.27;0.20;;;12.00;46.50;;;;;;5026427;28;20036;-90
2023/02/12 10:57:16;;;;;;;1.33;0.30;;;12.00;46.30;;;;;;5010900;28;20049;-92
2023/02/12 10:59:43;;;;;;;0.60;0.30;;;12.00;46.10;;;;;;5005901;28;20042;-92
2023/02/12 11:02:31;;;;;;;2.05;0.30;;;12.00;45.90;;;;;;4972931;28;20701;-89
2023/02/12 11:04:59;;;;;;;0.70;0.30;;;12.00;45.90;;;;;;4992607;28;20061;-88
2023/02/12 11:07:27;;;;;;;1.00;0.52;;;12.00;45.90;;;;;;4977452;28;20034;-91
2023/02/12 11:09:55;;;;;;;0.60;0.50;;;12.00;45.80;;;;;;4990146;28;20046;-92
2023/02/12 11:12:30;;;;;;;1.17;0.40;;;12.00;45.60;;;;;;4996671;28;20065;-91
2023/02/12 11:15:18;;;;;;;1.00;0.50;;;12.00;45.60;;;;;;4976828;28;20068;-91
2023/02/12 11:18:04;;;;;;;1.20;0.68;;;12.00;45.60;;;;;;5005640;28;20042;-92
2023/02/12 11:20:33;;;;;;;;;;;12.00;45.50;;;;;;5015251;28;20041;-94
2023/02/12 11:23:02;;;;;;;0.80;0.60;;;12.00;45.50;;;;;;5000097;28;19917;-90
2023/02/12 11:25:31;;;;;;;0.82;0.60;;;12.00;45.70;;;;;;5013160;28;20060;-85
2023/02/12 11:28:16;;;;;;;1.27;0.88;;;12.00;45.70;;;;;;4995686;28;20457;-90
2023/02/12 11:31:11;;;;;;;0.68;0.60;;;12.00;45.80;;;;;;4995937;28;20030;-86
2023/02/12 11:33:37;;;;;;;2.75;0.98;;;12.00;45.90;;;;;;5001383;28;20048;-87
2023/02/12 11:36:22;;;;;;;4.25;1.20;;;12.00;46.00;;;;;;5020363;28;20030;-84
2023/02/12 11:38:55;;;;;;;2.42;1.10;;;12.00;46.20;;;;;;5013569;28;20103;-86
2023/02/12 11:41:41;;;;;;;1.38;0.80;;;12.00;46.20;;;;;;5005230;28;20084;-86
2023/02/12 11:44:16;;;;;;;2.30;1.00;;;12.00;46.30;;;;;;5012145;28;20064;-87
2023/02/12 11:46:56;;;;;;;2.30;0.90;;;12.00;46.30;;;;;;5012414;28;20576;-90
2023/02/12 11:49:27;;;;;;;2.00;1.02;;;12.00;46.30;;;;;;5011750;28;20133;-84
2023/02/12 11:51:54;;;;;;;2.40;1.35;;;12.00;46.40;;;;;;5011646;28;20040;-85
2023/02/12 11:54:27;;;;;;;4.82;0.85;;;12.00;46.50;;;;;;5012775;28;20071;-84
2023/02/12 11:56:54;;;;;;;2.35;0.82;;;12.00;46.70;;;;;;4990328;28;20125;-81
2023/02/12 11:59:34;;;;;;;1.13;0.80;;;12.00;46.90;;;;;;5010939;28;20042;-85
2023/02/12 12:02:37;;;;;;;2.67;0.80;;;12.00;47.10;;;;;;4992374;28;20119;-85
2023/02/12 12:05:12;;;;;;;1.23;0.70;;;12.00;47.20;;;;;;4954659;28;20140;-86
2023/02/12 12:07:43;;;;;;;3.00;0.63;;;12.00;47.20;;;;;;5010271;28;20042;-88
2023/02/12 12:10:40;;;;;;;2.40;0.77;;;12.00;47.20;;;;;;5010183;28;20077;-86
2023/02/12 12:13:15;;;;;;;2.90;0.70;;;12.00;47.70;;;;;;5011227;28;20168;-89
2023/02/12 12:21:44;;;;;;;2.08;0.90;;;12.00;48.00;;;;;;5003392;28;20041;-88
2023/02/12 12:24:14;;;;;;;1.90;0.80;;;12.00;48.10;;;;;;5027020;28;20085;-85
2023/02/12 12:26:46;;;;;;;1.63;0.98;;;12.00;48.50;;;;;;5026015;28;20065;-84
2023/02/12 12:29:18;;;;;;;3.28;0.82;;;12.00;49.30;;;;;;5026869;28;20054;-86
2023/02/12 12:31:53;;;;;;;9.75;1.00;;;12.00;49.40;;;;;;5029486;28;20041;-85
2023/02/12 12:34:22;;;;;;;1.75;1.00;;;12.00;49.90;;;;;;5008772;28;20133;-87
2023/02/12 12:37:11;;;;;;;1.20;0.80;;;12.00;50.30;;;;;;5024939;28;20029;-84
2023/02/12 12:39:58;;;;;;;0.73;0.60;;;12.10;50.50;;;;;;5007337;28;20412;-84
2023/02/12 12:42:54;;;;;;;2.20;0.80;;;12.10;50.40;;;;;;5026616;28;20116;-84
2023/02/12 12:46:07;;;;;;;1.00;0.70;;;12.00;50.70;;;;;;5007411;28;20105;-83
2023/02/12 12:48:58;;;;;;;1.27;0.60;;;12.00;50.60;;;;;;4941628;28;20047;-82
2023/02/12 12:51:55;;;;;;;1.60;0.60;;;12.10;50.40;;;;;;4912860;29;20046;-80
2023/02/12 12:54:27;;;;;;;1.55;0.63;;;12.00;50.50;;;;;;4859429;29;20143;-82
2023/02/12 12:57:05;;;;;;;1.55;0.75;;;12.10;50.50;;;;;;4866111;29;20045;-80
2023/02/12 12:59:52;;;;;;;0.50;0.50;;;12.00;50.70;;;;;;4869354;29;20136;-81
2023/02/12 13:02:32;;;;;;;1.02;0.65;;;12.10;51.00;;;;;;4887082;29;21127;-81
2023/02/12 13:05:22;;;;;;;1.35;0.60;;;12.00;51.10;;;;;;4855373;29;20044;-80
2023/02/12 13:08:12;;;;;;;0.40;0.40;;;12.00;51.20;;;;;;4889299;29;20079;-83
2023/02/12 13:10:52;;;;;;;1.50;0.40;;;12.10;51.20;;;;;;4890558;29;20044;-81
2023/02/12 13:13:26;;;;;;;1.17;0.40;;;12.00;51.40;;;;;;4888323;29;20060;-83
2023/02/12 13:16:34;;;;;;;2.17;0.50;;;12.00;51.30;;;;;;4870022;29;20037;-81
2023/02/12 13:19:30;;;;;;;1.10;0.60;;;12.00;51.30;;;;;;4886832;29;20152;-83
2023/02/12 13:21:58;;;;;;;1.73;0.52;;;12.00;51.40;;;;;;4813974;29;20056;-81
2023/02/12 13:24:59;;;;;;;1.35;0.70;;;12.00;51.40;;;;;;4810312;29;20051;-82
2023/02/12 13:27:34;;;;;;;1.20;0.50;;;12.00;51.70;;;;;;4845703;29;20133;-84
2023/02/12 13:30:02;;;;;;;1.85;0.68;;;12.00;52.10;;;;;;4852369;29;20434;-83